THY1990 LTAW-LTFM
Flight info
| Callsign | THY1990 |
|---|---|
| Flight time | 1h 8m |
| Altitude | 37000 |
| Route | LTAW SID ENFOR UA4 HAKCE UL615 YAVRU UA4 ERSEN STAR LTFM |
| Aircraft | B738/M-VGDW/C |
Departure
| Time | 2026-05-07 09:13 |
|---|---|
| Airport | Tokat Airport (LTAW) |
Arrival
| Time | 2026-05-07 10:21 |
|---|---|
| Airport | İstanbul Airport (LTFM) |
| Time | Latitude | Longitude | Altitude | Speed | Heading |
|---|---|---|---|---|---|
| 2026-05-07 09:07 | 40.30140 | 36.35952 | 1839 ft | 0 kts | 110° |
| 2026-05-07 09:10 | 40.30142 | 36.35942 | 1839 ft | 2 kts | 110° |
| 2026-05-07 09:10 | 40.30148 | 36.35921 | 1839 ft | 3 kts | 110° |
| 2026-05-07 09:10 | 40.30152 | 36.35907 | 1839 ft | 0 kts | 110° |
| 2026-05-07 09:11 | 40.30152 | 36.35910 | 1839 ft | 1 kts | 110° |
| 2026-05-07 09:11 | 40.30149 | 36.35917 | 1839 ft | 1 kts | 114° |
| 2026-05-07 09:11 | 40.30146 | 36.35925 | 1839 ft | 1 kts | 114° |
| 2026-05-07 09:11 | 40.30135 | 36.35940 | 1839 ft | 3 kts | 157° |
| 2026-05-07 09:12 | 40.30114 | 36.35927 | 1839 ft | 6 kts | 245° |
| 2026-05-07 09:12 | 40.30134 | 36.35857 | 1839 ft | 10 kts | 314° |
| 2026-05-07 09:12 | 40.30218 | 36.35940 | 1839 ft | 43 kts | 50° |
| 2026-05-07 09:12 | 40.30613 | 36.36542 | 1839 ft | 128 kts | 49° |
| 2026-05-07 09:13 | 40.31313 | 36.37610 | 2142 ft | 166 kts | 49° |
| 2026-05-07 09:13 | 40.32046 | 36.38811 | 2832 ft | 171 kts | 59° |
| 2026-05-07 09:13 | 40.32144 | 36.40329 | 3428 ft | 173 kts | 110° |
| 2026-05-07 09:13 | 40.31312 | 36.41422 | 4055 ft | 178 kts | 159° |
| 2026-05-07 09:14 | 40.30081 | 36.41349 | 4699 ft | 183 kts | 207° |
| 2026-05-07 09:14 | 40.29071 | 36.40323 | 5401 ft | 188 kts | 227° |
| 2026-05-07 09:14 | 40.28071 | 36.39183 | 6058 ft | 199 kts | 223° |
| 2026-05-07 09:14 | 40.26936 | 36.38061 | 6767 ft | 210 kts | 219° |
| 2026-05-07 09:15 | 40.25665 | 36.37006 | 7463 ft | 222 kts | 214° |
| 2026-05-07 09:15 | 40.24257 | 36.36041 | 8153 ft | 232 kts | 210° |
| 2026-05-07 09:15 | 40.22758 | 36.35188 | 8833 ft | 239 kts | 206° |
| 2026-05-07 09:15 | 40.21168 | 36.34456 | 9512 ft | 244 kts | 201° |
| 2026-05-07 09:16 | 40.19515 | 36.33874 | 10190 ft | 248 kts | 198° |
| 2026-05-07 09:16 | 40.17817 | 36.33373 | 10837 ft | 256 kts | 197° |
| 2026-05-07 09:16 | 40.16000 | 36.32923 | 11308 ft | 276 kts | 194° |
| 2026-05-07 09:16 | 40.14030 | 36.32508 | 11762 ft | 296 kts | 193° |
| 2026-05-07 09:17 | 40.11923 | 36.32087 | 12165 ft | 316 kts | 192° |
| 2026-05-07 09:17 | 40.09677 | 36.31652 | 12554 ft | 336 kts | 192° |
| 2026-05-07 09:17 | 40.07356 | 36.31212 | 13178 ft | 345 kts | 192° |
| 2026-05-07 09:17 | 40.04955 | 36.30764 | 13972 ft | 350 kts | 192° |
| 2026-05-07 09:18 | 40.02537 | 36.30317 | 14757 ft | 354 kts | 192° |
| 2026-05-07 09:18 | 40.00080 | 36.29864 | 15527 ft | 358 kts | 192° |
| 2026-05-07 09:18 | 39.97590 | 36.29405 | 16275 ft | 362 kts | 192° |
| 2026-05-07 09:18 | 39.95084 | 36.28939 | 17002 ft | 366 kts | 192° |
| 2026-05-07 09:19 | 39.92633 | 36.28089 | 17696 ft | 364 kts | 207° |
| 2026-05-07 09:19 | 39.90527 | 36.26293 | 18380 ft | 361 kts | 225° |
| 2026-05-07 09:19 | 39.88989 | 36.23722 | 19049 ft | 360 kts | 243° |
| 2026-05-07 09:19 | 39.88178 | 36.20657 | 19698 ft | 361 kts | 261° |
| 2026-05-07 09:20 | 39.88166 | 36.17374 | 20334 ft | 365 kts | 278° |
| 2026-05-07 09:20 | 39.88763 | 36.14189 | 20950 ft | 369 kts | 285° |
| 2026-05-07 09:20 | 39.89436 | 36.10939 | 21549 ft | 373 kts | 282° |
| 2026-05-07 09:20 | 39.89995 | 36.07642 | 22133 ft | 376 kts | 281° |
| 2026-05-07 09:21 | 39.90471 | 36.04253 | 22707 ft | 380 kts | 279° |
| 2026-05-07 09:21 | 39.90915 | 36.00853 | 23257 ft | 383 kts | 279° |
| 2026-05-07 09:21 | 39.91364 | 35.97407 | 23797 ft | 386 kts | 279° |
| 2026-05-07 09:21 | 39.91814 | 35.93937 | 24316 ft | 390 kts | 279° |
| 2026-05-07 09:22 | 39.92267 | 35.90448 | 24821 ft | 393 kts | 279° |
| 2026-05-07 09:22 | 39.92722 | 35.86917 | 25308 ft | 396 kts | 279° |
| 2026-05-07 09:22 | 39.93179 | 35.83365 | 25783 ft | 399 kts | 279° |
| 2026-05-07 09:22 | 39.93638 | 35.79776 | 26242 ft | 402 kts | 279° |
| 2026-05-07 09:23 | 39.94108 | 35.76172 | 26691 ft | 405 kts | 279° |
| 2026-05-07 09:23 | 39.94592 | 35.72538 | 27122 ft | 408 kts | 279° |
| 2026-05-07 09:23 | 39.95071 | 35.68870 | 27541 ft | 411 kts | 279° |
| 2026-05-07 09:23 | 39.95545 | 35.65181 | 27948 ft | 414 kts | 279° |
| 2026-05-07 09:24 | 39.96012 | 35.61508 | 28336 ft | 417 kts | 279° |
| 2026-05-07 09:24 | 39.96484 | 35.57779 | 28718 ft | 419 kts | 279° |
| 2026-05-07 09:24 | 39.96957 | 35.54008 | 29087 ft | 422 kts | 278° |
| 2026-05-07 09:24 | 39.97430 | 35.50230 | 29448 ft | 424 kts | 278° |
| 2026-05-07 09:25 | 39.97906 | 35.46413 | 29795 ft | 427 kts | 278° |
| 2026-05-07 09:25 | 39.98384 | 35.42578 | 30131 ft | 429 kts | 278° |
| 2026-05-07 09:25 | 39.98866 | 35.38725 | 30490 ft | 430 kts | 278° |
| 2026-05-07 09:25 | 39.99333 | 35.34927 | 30937 ft | 429 kts | 278° |
| 2026-05-07 09:26 | 39.99789 | 35.31092 | 31385 ft | 428 kts | 278° |
| 2026-05-07 09:26 | 40.00243 | 35.27256 | 31812 ft | 427 kts | 278° |
| 2026-05-07 09:26 | 40.00693 | 35.23423 | 32228 ft | 426 kts | 278° |
| 2026-05-07 09:26 | 40.01140 | 35.19606 | 32641 ft | 425 kts | 278° |
| 2026-05-07 09:27 | 40.01586 | 35.15780 | 33044 ft | 425 kts | 278° |
| 2026-05-07 09:27 | 40.02029 | 35.11975 | 33440 ft | 424 kts | 278° |
| 2026-05-07 09:27 | 40.02907 | 35.04379 | 34205 ft | 422 kts | 278° |
| 2026-05-07 09:28 | 40.03342 | 35.00595 | 34578 ft | 421 kts | 278° |
| 2026-05-07 09:28 | 40.03775 | 34.96827 | 34939 ft | 421 kts | 278° |
| 2026-05-07 09:28 | 40.04208 | 34.93046 | 35295 ft | 420 kts | 278° |
| 2026-05-07 09:28 | 40.04648 | 34.89318 | 35639 ft | 419 kts | 278° |
| 2026-05-07 09:29 | 40.05093 | 34.85573 | 35956 ft | 419 kts | 278° |
| 2026-05-07 09:29 | 40.05982 | 34.77986 | 35993 ft | 423 kts | 278° |
| 2026-05-07 09:30 | 40.06853 | 34.70436 | 35996 ft | 418 kts | 278° |
| 2026-05-07 09:30 | 40.07709 | 34.62935 | 35997 ft | 417 kts | 278° |
| 2026-05-07 09:31 | 40.08560 | 34.55425 | 35997 ft | 418 kts | 278° |
| 2026-05-07 09:31 | 40.09404 | 34.47914 | 35997 ft | 418 kts | 278° |
| 2026-05-07 09:32 | 40.10241 | 34.40409 | 35997 ft | 418 kts | 278° |
| 2026-05-07 09:32 | 40.11090 | 34.32939 | 35997 ft | 418 kts | 278° |
| 2026-05-07 09:33 | 40.11927 | 34.25439 | 35997 ft | 418 kts | 277° |
| 2026-05-07 09:33 | 40.12745 | 34.17929 | 35997 ft | 418 kts | 277° |
| 2026-05-07 09:34 | 40.13555 | 34.10406 | 35997 ft | 418 kts | 277° |
| 2026-05-07 09:34 | 40.14359 | 34.02895 | 35997 ft | 418 kts | 277° |
| 2026-05-07 09:35 | 40.15164 | 33.95373 | 35997 ft | 418 kts | 278° |
| 2026-05-07 09:35 | 40.16178 | 33.87939 | 35997 ft | 418 kts | 279° |
| 2026-05-07 09:36 | 40.17177 | 33.80457 | 35997 ft | 417 kts | 278° |
| 2026-05-07 09:36 | 40.17934 | 33.72918 | 35997 ft | 417 kts | 277° |
| 2026-05-07 09:37 | 40.18681 | 33.65371 | 35997 ft | 417 kts | 277° |
| 2026-05-07 09:37 | 40.19427 | 33.57891 | 35997 ft | 417 kts | 277° |
| 2026-05-07 09:38 | 40.20194 | 33.50357 | 35997 ft | 417 kts | 277° |
| 2026-05-07 09:38 | 40.20854 | 33.44098 | 35997 ft | 417 kts | 277° |
| 2026-05-07 09:39 | 40.21616 | 33.36576 | 35997 ft | 417 kts | 277° |
| 2026-05-07 09:39 | 40.22361 | 33.29031 | 35997 ft | 417 kts | 277° |
| 2026-05-07 09:40 | 40.23098 | 33.21497 | 35997 ft | 417 kts | 277° |
| 2026-05-07 09:40 | 40.23835 | 33.13959 | 35997 ft | 417 kts | 277° |
| 2026-05-07 09:41 | 40.25193 | 33.06571 | 35997 ft | 418 kts | 287° |
| 2026-05-07 09:41 | 40.27056 | 32.99346 | 35997 ft | 418 kts | 288° |
| 2026-05-07 09:42 | 40.28912 | 32.92176 | 35997 ft | 418 kts | 288° |
| 2026-05-07 09:42 | 40.30774 | 32.84954 | 35997 ft | 418 kts | 288° |
| 2026-05-07 09:43 | 40.32633 | 32.77718 | 35998 ft | 420 kts | 287° |
| 2026-05-07 09:43 | 40.34519 | 32.70357 | 35998 ft | 432 kts | 287° |
| 2026-05-07 09:44 | 40.36476 | 32.62803 | 35997 ft | 442 kts | 288° |
| 2026-05-07 09:44 | 40.38471 | 32.55156 | 35997 ft | 443 kts | 288° |
| 2026-05-07 09:45 | 40.40434 | 32.47519 | 35997 ft | 442 kts | 287° |
| 2026-05-07 09:45 | 40.42362 | 32.39920 | 35997 ft | 442 kts | 287° |
| 2026-05-07 09:46 | 40.44291 | 32.32268 | 35997 ft | 442 kts | 287° |
| 2026-05-07 09:46 | 40.46219 | 32.24603 | 35997 ft | 442 kts | 287° |
| 2026-05-07 09:47 | 40.48198 | 32.16974 | 35997 ft | 442 kts | 290° |
| 2026-05-07 09:47 | 40.50483 | 32.09462 | 35997 ft | 442 kts | 290° |
| 2026-05-07 09:48 | 40.52734 | 32.01945 | 35997 ft | 442 kts | 290° |
| 2026-05-07 09:48 | 40.54962 | 31.94390 | 35997 ft | 442 kts | 290° |
| 2026-05-07 09:49 | 40.57164 | 31.86890 | 35997 ft | 442 kts | 290° |
| 2026-05-07 09:49 | 40.59292 | 31.79302 | 35997 ft | 442 kts | 287° |
| 2026-05-07 09:50 | 40.61169 | 31.71592 | 35997 ft | 442 kts | 287° |
| 2026-05-07 09:50 | 40.63036 | 31.63895 | 35997 ft | 442 kts | 287° |
| 2026-05-07 09:51 | 40.64910 | 31.56188 | 35997 ft | 442 kts | 287° |
| 2026-05-07 09:51 | 40.66784 | 31.48482 | 35997 ft | 442 kts | 287° |
| 2026-05-07 09:52 | 40.68657 | 31.40774 | 35997 ft | 442 kts | 287° |
| 2026-05-07 09:52 | 40.70555 | 31.33099 | 35655 ft | 445 kts | 287° |
| 2026-05-07 09:52 | 40.71506 | 31.29230 | 35031 ft | 443 kts | 287° |
| 2026-05-07 09:53 | 40.72447 | 31.25386 | 34407 ft | 439 kts | 287° |
| 2026-05-07 09:53 | 40.73380 | 31.21560 | 33780 ft | 436 kts | 287° |
| 2026-05-07 09:53 | 40.74309 | 31.17736 | 33155 ft | 439 kts | 287° |
| 2026-05-07 09:53 | 40.75241 | 31.13893 | 32529 ft | 441 kts | 287° |
| 2026-05-07 09:54 | 40.76171 | 31.10047 | 31903 ft | 439 kts | 287° |
| 2026-05-07 09:54 | 40.77096 | 31.06236 | 31279 ft | 436 kts | 287° |
| 2026-05-07 09:54 | 40.78026 | 31.02443 | 30652 ft | 431 kts | 287° |
| 2026-05-07 09:54 | 40.78936 | 30.98691 | 30026 ft | 427 kts | 287° |
| 2026-05-07 09:55 | 40.79828 | 30.94983 | 29400 ft | 422 kts | 287° |
| 2026-05-07 09:55 | 40.80708 | 30.91301 | 28774 ft | 418 kts | 286° |
| 2026-05-07 09:55 | 40.81577 | 30.87655 | 28147 ft | 414 kts | 286° |
| 2026-05-07 09:55 | 40.82431 | 30.84059 | 27523 ft | 409 kts | 286° |
| 2026-05-07 09:56 | 40.83268 | 30.80530 | 26906 ft | 410 kts | 286° |
| 2026-05-07 09:56 | 40.84144 | 30.76827 | 26280 ft | 433 kts | 286° |
| 2026-05-07 09:56 | 40.85061 | 30.72954 | 25654 ft | 446 kts | 286° |
| 2026-05-07 09:56 | 40.85977 | 30.69009 | 25027 ft | 449 kts | 285° |
| 2026-05-07 09:57 | 40.86683 | 30.64998 | 24400 ft | 446 kts | 280° |
| 2026-05-07 09:57 | 40.87224 | 30.60986 | 23776 ft | 443 kts | 280° |
| 2026-05-07 09:57 | 40.87855 | 30.57018 | 23149 ft | 439 kts | 282° |
| 2026-05-07 09:57 | 40.88503 | 30.53098 | 22529 ft | 434 kts | 282° |
| 2026-05-07 09:58 | 40.89141 | 30.49225 | 22260 ft | 431 kts | 281° |
| 2026-05-07 09:58 | 40.89770 | 30.45392 | 22159 ft | 431 kts | 281° |
| 2026-05-07 09:58 | 40.90411 | 30.41466 | 22093 ft | 431 kts | 281° |
| 2026-05-07 09:58 | 40.91042 | 30.37591 | 22030 ft | 431 kts | 281° |
| 2026-05-07 09:59 | 40.91664 | 30.33758 | 22004 ft | 431 kts | 281° |
| 2026-05-07 09:59 | 40.92291 | 30.29886 | 21999 ft | 431 kts | 281° |
| 2026-05-07 09:59 | 40.92918 | 30.26009 | 21664 ft | 430 kts | 281° |
| 2026-05-07 09:59 | 40.93512 | 30.22139 | 21162 ft | 427 kts | 279° |
| 2026-05-07 10:00 | 40.93836 | 30.18259 | 20661 ft | 422 kts | 272° |
| 2026-05-07 10:00 | 40.93869 | 30.14393 | 20161 ft | 419 kts | 269° |
| 2026-05-07 10:00 | 40.93821 | 30.10554 | 19660 ft | 416 kts | 269° |
| 2026-05-07 10:00 | 40.93741 | 30.06751 | 19159 ft | 413 kts | 268° |
| 2026-05-07 10:01 | 40.93659 | 30.02968 | 18658 ft | 410 kts | 268° |
| 2026-05-07 10:01 | 40.93577 | 29.99222 | 18158 ft | 406 kts | 268° |
| 2026-05-07 10:01 | 40.93493 | 29.95492 | 17656 ft | 403 kts | 268° |
| 2026-05-07 10:01 | 40.93408 | 29.91795 | 17154 ft | 401 kts | 268° |
| 2026-05-07 10:02 | 40.93324 | 29.88126 | 16653 ft | 398 kts | 268° |
| 2026-05-07 10:02 | 40.93238 | 29.84481 | 16153 ft | 395 kts | 268° |
| 2026-05-07 10:02 | 40.93152 | 29.80870 | 15653 ft | 392 kts | 268° |
| 2026-05-07 10:02 | 40.93067 | 29.77318 | 15157 ft | 390 kts | 268° |
| 2026-05-07 10:03 | 40.92981 | 29.73746 | 14658 ft | 389 kts | 268° |
| 2026-05-07 10:03 | 40.92894 | 29.70164 | 14154 ft | 386 kts | 268° |
| 2026-05-07 10:03 | 40.92826 | 29.66628 | 13654 ft | 383 kts | 268° |
| 2026-05-07 10:03 | 40.92754 | 29.63133 | 13154 ft | 380 kts | 268° |
| 2026-05-07 10:04 | 40.92678 | 29.59638 | 12653 ft | 379 kts | 268° |
| 2026-05-07 10:04 | 40.92603 | 29.56187 | 12154 ft | 374 kts | 268° |
| 2026-05-07 10:04 | 40.92522 | 29.52762 | 11650 ft | 367 kts | 268° |
| 2026-05-07 10:04 | 40.92441 | 29.49424 | 11186 ft | 359 kts | 268° |
| 2026-05-07 10:05 | 40.92362 | 29.46211 | 11080 ft | 341 kts | 268° |
| 2026-05-07 10:05 | 40.92290 | 29.43168 | 11010 ft | 320 kts | 268° |
| 2026-05-07 10:05 | 40.92232 | 29.40376 | 10991 ft | 297 kts | 268° |
| 2026-05-07 10:05 | 40.92171 | 29.37719 | 10968 ft | 277 kts | 268° |
| 2026-05-07 10:06 | 40.92112 | 29.35258 | 10880 ft | 261 kts | 268° |
| 2026-05-07 10:06 | 40.92052 | 29.32896 | 10652 ft | 252 kts | 268° |
| 2026-05-07 10:06 | 40.91992 | 29.30617 | 10423 ft | 243 kts | 268° |
| 2026-05-07 10:06 | 40.91933 | 29.28421 | 10195 ft | 235 kts | 268° |
| 2026-05-07 10:07 | 40.91875 | 29.26295 | 9967 ft | 228 kts | 268° |
| 2026-05-07 10:07 | 40.91817 | 29.24198 | 9741 ft | 229 kts | 268° |
| 2026-05-07 10:07 | 40.91758 | 29.22081 | 9516 ft | 231 kts | 268° |
| 2026-05-07 10:07 | 40.91697 | 29.19956 | 9291 ft | 232 kts | 268° |
| 2026-05-07 10:08 | 40.91636 | 29.17826 | 9067 ft | 233 kts | 268° |
| 2026-05-07 10:08 | 40.91574 | 29.15666 | 8843 ft | 236 kts | 268° |
| 2026-05-07 10:08 | 40.91511 | 29.13485 | 8619 ft | 239 kts | 268° |
| 2026-05-07 10:08 | 40.91448 | 29.11305 | 8396 ft | 240 kts | 268° |
| 2026-05-07 10:09 | 40.91384 | 29.09096 | 8170 ft | 240 kts | 268° |
| 2026-05-07 10:09 | 40.91320 | 29.06894 | 7945 ft | 240 kts | 268° |
| 2026-05-07 10:09 | 40.91258 | 29.04689 | 7719 ft | 239 kts | 268° |
| 2026-05-07 10:09 | 40.91204 | 29.02497 | 7492 ft | 237 kts | 270° |
| 2026-05-07 10:10 | 40.91380 | 29.00345 | 7266 ft | 235 kts | 280° |
| 2026-05-07 10:10 | 40.91784 | 28.98250 | 7041 ft | 235 kts | 285° |
| 2026-05-07 10:10 | 40.92263 | 28.96184 | 6816 ft | 235 kts | 286° |
| 2026-05-07 10:10 | 40.92749 | 28.94150 | 6591 ft | 232 kts | 286° |
| 2026-05-07 10:11 | 40.93225 | 28.92139 | 6365 ft | 227 kts | 286° |
| 2026-05-07 10:11 | 40.93689 | 28.90168 | 6137 ft | 221 kts | 287° |
| 2026-05-07 10:11 | 40.94140 | 28.88246 | 5909 ft | 217 kts | 287° |
| 2026-05-07 10:11 | 40.94581 | 28.86359 | 5681 ft | 212 kts | 287° |
| 2026-05-07 10:12 | 40.95009 | 28.84523 | 5449 ft | 205 kts | 288° |
| 2026-05-07 10:12 | 40.95421 | 28.82754 | 5218 ft | 199 kts | 288° |
| 2026-05-07 10:12 | 40.95824 | 28.81018 | 5026 ft | 195 kts | 288° |
| 2026-05-07 10:12 | 40.96217 | 28.79326 | 4980 ft | 190 kts | 288° |
| 2026-05-07 10:13 | 40.96606 | 28.77655 | 5004 ft | 187 kts | 288° |
| 2026-05-07 10:13 | 40.96980 | 28.76041 | 4999 ft | 182 kts | 288° |
| 2026-05-07 10:13 | 40.97610 | 28.74645 | 4942 ft | 179 kts | 323° |
| 2026-05-07 10:13 | 40.98710 | 28.74108 | 5032 ft | 157 kts | 346° |
| 2026-05-07 10:14 | 40.99734 | 28.73902 | 5059 ft | 143 kts | 350° |
| 2026-05-07 10:14 | 41.00704 | 28.73771 | 5032 ft | 140 kts | 352° |
| 2026-05-07 10:14 | 41.01674 | 28.73606 | 5019 ft | 141 kts | 350° |
| 2026-05-07 10:14 | 41.02659 | 28.73459 | 4867 ft | 143 kts | 351° |
| 2026-05-07 10:15 | 41.03648 | 28.73344 | 4668 ft | 143 kts | 354° |
| 2026-05-07 10:15 | 41.04640 | 28.73266 | 4475 ft | 142 kts | 355° |
| 2026-05-07 10:15 | 41.05625 | 28.73211 | 4286 ft | 143 kts | 356° |
| 2026-05-07 10:15 | 41.06618 | 28.73170 | 4096 ft | 143 kts | 358° |
| 2026-05-07 10:16 | 41.07620 | 28.73138 | 3904 ft | 144 kts | 358° |
| 2026-05-07 10:16 | 41.08610 | 28.73111 | 3715 ft | 144 kts | 359° |
| 2026-05-07 10:16 | 41.09629 | 28.73087 | 3521 ft | 145 kts | 359° |
| 2026-05-07 10:16 | 41.10634 | 28.73066 | 3328 ft | 146 kts | 359° |
| 2026-05-07 10:17 | 41.11640 | 28.73046 | 3136 ft | 146 kts | 359° |
| 2026-05-07 10:17 | 41.12654 | 28.73027 | 2943 ft | 146 kts | 359° |
| 2026-05-07 10:17 | 41.13677 | 28.73007 | 2747 ft | 145 kts | 359° |
| 2026-05-07 10:17 | 41.14672 | 28.72989 | 2557 ft | 145 kts | 359° |
| 2026-05-07 10:18 | 41.15679 | 28.72970 | 2365 ft | 144 kts | 359° |
| 2026-05-07 10:18 | 41.16682 | 28.72951 | 2173 ft | 144 kts | 359° |
| 2026-05-07 10:18 | 41.17680 | 28.72933 | 1982 ft | 143 kts | 359° |
| 2026-05-07 10:18 | 41.18681 | 28.72914 | 1791 ft | 143 kts | 359° |
| 2026-05-07 10:19 | 41.19673 | 28.72896 | 1602 ft | 143 kts | 359° |
| 2026-05-07 10:19 | 41.20668 | 28.72878 | 1411 ft | 142 kts | 359° |
| 2026-05-07 10:19 | 41.21650 | 28.72859 | 1224 ft | 142 kts | 359° |
| 2026-05-07 10:19 | 41.22620 | 28.72842 | 1038 ft | 141 kts | 359° |
| 2026-05-07 10:20 | 41.23627 | 28.72823 | 846 ft | 142 kts | 359° |
| 2026-05-07 10:20 | 41.24621 | 28.72808 | 636 ft | 145 kts | 360° |
| 2026-05-07 10:20 | 41.25631 | 28.72802 | 453 ft | 146 kts | 359° |
| 2026-05-07 10:20 | 41.26606 | 28.72793 | 341 ft | 134 kts | 359° |
| 2026-05-07 10:21 | 41.27419 | 28.72783 | 333 ft | 78 kts | 357° |
| 2026-05-07 10:21 | 41.27613 | 28.72771 | 333 ft | 4 kts | 357° |
| 2026-05-07 10:21 | 41.27689 | 28.72767 | 333 ft | 17 kts | 357° |
| 2026-05-07 10:21 | 41.27841 | 28.72763 | 333 ft | 26 kts | 4° |
| 2026-05-07 10:22 | 41.27995 | 28.72808 | 333 ft | 0 kts | 33° |
| 2026-05-07 10:22 | 41.28023 | 28.72833 | 333 ft | 9 kts | 33° |
| 2026-05-07 10:22 | 41.28088 | 28.72896 | 333 ft | 12 kts | 56° |
| 2026-05-07 10:22 | 41.28069 | 28.72955 | 333 ft | 3 kts | 176° |
| 2026-05-07 10:23 | 41.28034 | 28.72957 | 333 ft | 12 kts | 179° |
| 2026-05-07 10:23 | 41.27916 | 28.72958 | 333 ft | 19 kts | 179° |
| 2026-05-07 10:23 | 41.27770 | 28.72960 | 333 ft | 21 kts | 179° |
| 2026-05-07 10:23 | 41.27552 | 28.72975 | 333 ft | 27 kts | 178° |
| 2026-05-07 10:24 | 41.27368 | 28.72982 | 333 ft | 28 kts | 179° |
| 2026-05-07 10:24 | 41.27249 | 28.72986 | 333 ft | 24 kts | 179° |
| 2026-05-07 10:24 | 41.27077 | 28.72991 | 333 ft | 24 kts | 177° |
| 2026-05-07 10:24 | 41.26977 | 28.73128 | 333 ft | 24 kts | 124° |
| 2026-05-07 10:25 | 41.26948 | 28.73224 | 333 ft | 4 kts | 90° |
| 2026-05-07 10:25 | 41.26948 | 28.73270 | 333 ft | 5 kts | 90° |
| 2026-05-07 10:25 | 41.26948 | 28.73340 | 333 ft | 11 kts | 90° |
| 2026-05-07 10:25 | 41.26948 | 28.73448 | 333 ft | 16 kts | 89° |
| 2026-05-07 10:26 | 41.26949 | 28.73646 | 333 ft | 25 kts | 89° |
| 2026-05-07 10:26 | 41.26951 | 28.73888 | 333 ft | 25 kts | 89° |
| 2026-05-07 10:26 | 41.26952 | 28.74110 | 333 ft | 23 kts | 89° |
| 2026-05-07 10:26 | 41.26953 | 28.74273 | 333 ft | 19 kts | 89° |
| 2026-05-07 10:27 | 41.26954 | 28.74490 | 333 ft | 26 kts | 89° |
| 2026-05-07 10:27 | 41.26956 | 28.74739 | 333 ft | 28 kts | 89° |
| 2026-05-07 10:27 | 41.26957 | 28.74956 | 333 ft | 23 kts | 89° |
| 2026-05-07 10:27 | 41.26895 | 28.75148 | 333 ft | 20 kts | 178° |
| 2026-05-07 10:28 | 41.26735 | 28.75139 | 333 ft | 25 kts | 182° |
| 2026-05-07 10:28 | 41.26555 | 28.75107 | 333 ft | 28 kts | 194° |
| 2026-05-07 10:28 | 41.26375 | 28.75064 | 333 ft | 26 kts | 179° |
| 2026-05-07 10:28 | 41.26201 | 28.75067 | 333 ft | 24 kts | 177° |
| 2026-05-07 10:29 | 41.26021 | 28.75145 | 333 ft | 30 kts | 160° |
| 2026-05-07 10:29 | 41.25831 | 28.75161 | 333 ft | 22 kts | 181° |
| 2026-05-07 10:29 | 41.25684 | 28.75150 | 333 ft | 15 kts | 203° |
| 2026-05-07 10:30 | 41.25679 | 28.74922 | 333 ft | 13 kts | 4° |
| 2026-05-07 10:30 | 41.25711 | 28.74921 | 333 ft | 0 kts | 359° |